Time;durP1;ratioP1;P1;durP2;ratioP2;P2;SDS_P1;SDS_P2;PMS_P1;PMS_P2;Temp;Humidity;BMP_temperature;BMP_pressure;BME280_temperature;BME280_humidity;BME280_pressure;Samples;Min_cycle;Max_cycle;Signal;HPM_P1;HPM_P2
2024/01/06 00:02:13;;;;;;;14.00;5.47;;;;;;;;;;4980732;28;20074;-58
2024/01/06 00:05:00;;;;;;;10.57;5.47;;;;;;;;;;4983165;28;20046;-59
2024/01/06 00:07:54;;;;;;;13.63;5.43;;;;;;;;;;4973987;28;20528;-57
2024/01/06 00:10:41;;;;;;;7.28;3.92;;;;;;;;;;4984027;28;20438;-58
2024/01/06 00:13:36;;;;;;;13.40;6.10;;;;;;;;;;4985305;28;20061;-59
2024/01/06 00:16:29;;;;;;;11.20;4.82;;;;;;;;;;4982840;28;20054;-57
2024/01/06 00:19:13;;;;;;;9.07;4.20;;;;;;;;;;4984364;28;20042;-58
2024/01/06 00:21:40;;;;;;;9.83;4.73;;;;;;;;;;4983065;28;20061;-57
2024/01/06 00:24:14;;;;;;;10.60;4.20;;;;;;;;;;4975554;28;20042;-63
2024/01/06 00:26:41;;;;;;;14.50;4.67;;;;;;;;;;4982293;28;20497;-63
2024/01/06 00:29:09;;;;;;;10.80;4.43;;;;;;;;;;4981747;28;20680;-63
2024/01/06 00:31:42;;;;;;;10.97;4.70;;;;;;;;;;4984710;28;20593;-63
2024/01/06 00:34:10;;;;;;;16.00;5.87;;;;;;;;;;4983959;28;20050;-63
2024/01/06 00:36:37;;;;;;;9.23;4.63;;;;;;;;;;4979925;28;20056;-62
2024/01/06 00:39:11;;;;;;;11.37;5.03;;;;;;;;;;4983248;28;20057;-59
2024/01/06 00:41:39;;;;;;;13.43;5.80;;;;;;;;;;4982555;28;20258;-67
2024/01/06 00:44:12;;;;;;;13.47;5.47;;;;;;;;;;4983446;28;20046;-67
2024/01/06 00:46:40;;;;;;;12.43;6.23;;;;;;;;;;4985879;28;20498;-68
2024/01/06 00:49:07;;;;;;;14.43;5.17;;;;;;;;;;4982907;28;20050;-68
2024/01/06 00:52:01;;;;;;;12.93;4.73;;;;;;;;;;4976048;28;20146;-61
2024/01/06 00:54:55;;;;;;;15.83;5.37;;;;;;;;;;4980199;28;20058;-63
2024/01/06 00:57:43;;;;;;;10.43;5.50;;;;;;;;;;4982833;28;20108;-63
2024/01/06 01:00:36;;;;;;;11.23;5.30;;;;;;;;;;4980009;28;20061;-63
2024/01/06 01:03:23;;;;;;;11.93;4.97;;;;;;;;;;4982385;28;20053;-63
2024/01/06 01:06:17;;;;;;;15.67;6.33;;;;;;;;;;4978147;28;20046;-63
2024/01/06 01:09:05;;;;;;;15.77;6.05;;;;;;;;;;4985667;28;20078;-61
2024/01/06 01:11:58;;;;;;;14.03;4.67;;;;;;;;;;4982365;28;20058;-61
2024/01/06 01:14:46;;;;;;;13.32;4.68;;;;;;;;;;4981654;28;20145;-61
2024/01/06 01:17:46;;;;;;;15.80;5.37;;;;;;;;;;4981278;28;20070;-62
2024/01/06 01:20:33;;;;;;;13.60;4.93;;;;;;;;;;4978797;28;20109;-63
2024/01/06 01:23:27;;;;;;;9.83;4.77;;;;;;;;;;4986347;28;20065;-58
2024/01/06 01:26:15;;;;;;;;;;;;;;;;;;4986033;28;20058;-57
2024/01/06 01:29:08;;;;;;;11.67;4.60;;;;;;;;;;4986147;28;19976;-54
2024/01/06 01:31:55;;;;;;;10.68;4.72;;;;;;;;;;4968815;28;20058;-53
2024/01/06 01:34:49;;;;;;;12.57;4.73;;;;;;;;;;4987802;28;20065;-54
2024/01/06 01:37:37;;;;;;;9.15;4.75;;;;;;;;;;4984410;28;20066;-63
2024/01/06 01:40:30;;;;;;;15.73;5.30;;;;;;;;;;4979048;28;20063;-62
2024/01/06 01:43:18;;;;;;;8.68;3.95;;;;;;;;;;4977846;28;20114;-62
2024/01/06 01:46:12;;;;;;;11.77;4.43;;;;;;;;;;4984520;28;20120;-63
2024/01/06 01:49:01;;;;;;;11.05;4.80;;;;;;;;;;4986134;28;20049;-67
2024/01/06 01:51:55;;;;;;;11.80;5.10;;;;;;;;;;4985126;28;20046;-60
2024/01/06 01:54:43;;;;;;;;;;;;;;;;;;4982502;28;20188;-60
2024/01/06 01:57:36;;;;;;;9.63;4.20;;;;;;;;;;4982747;28;20377;-60
2024/01/06 02:00:30;;;;;;;10.80;4.17;;;;;;;;;;4983629;28;20399;-60
2024/01/06 02:03:18;;;;;;;12.73;4.90;;;;;;;;;;4980892;28;20502;-61
2024/01/06 02:06:12;;;;;;;12.23;4.57;;;;;;;;;;4982864;28;20062;-63
2024/01/06 02:08:59;;;;;;;9.40;3.47;;;;;;;;;;4984388;28;20128;-63
2024/01/06 02:11:52;;;;;;;10.33;4.40;;;;;;;;;;4975513;28;20349;-62
2024/01/06 02:14:39;;;;;;;10.65;4.82;;;;;;;;;;4986131;28;20050;-63
2024/01/06 02:17:40;;;;;;;8.40;4.60;;;;;;;;;;4987187;28;20144;-53
2024/01/06 02:20:29;;;;;;;10.47;4.77;;;;;;;;;;4985096;28;20066;-52
2024/01/06 02:23:23;;;;;;;10.37;4.47;;;;;;;;;;4985213;28;20061;-48
2024/01/06 02:26:11;;;;;;;10.85;4.60;;;;;;;;;;4983981;28;20078;-46
2024/01/06 02:29:04;;;;;;;15.30;4.97;;;;;;;;;;4984389;28;20054;-47
2024/01/06 02:31:52;;;;;;;10.00;4.25;;;;;;;;;;4982870;28;20062;-50
2024/01/06 02:34:45;;;;;;;12.13;4.83;;;;;;;;;;4985604;28;20577;-66
2024/01/06 02:37:39;;;;;;;13.07;4.90;;;;;;;;;;4985549;28;20042;-67
2024/01/06 02:40:33;;;;;;;9.37;4.30;;;;;;;;;;4982044;28;20810;-66
2024/01/06 02:43:27;;;;;;;13.23;4.60;;;;;;;;;;4984083;28;20433;-65
2024/01/06 02:46:21;;;;;;;18.67;4.77;;;;;;;;;;4985598;28;20501;-58
2024/01/06 02:49:08;;;;;;;8.98;4.30;;;;;;;;;;4986581;28;20113;-60
2024/01/06 02:52:02;;;;;;;7.67;3.97;;;;;;;;;;4983559;28;20050;-60
2024/01/06 02:54:56;;;;;;;14.83;4.23;;;;;;;;;;4979420;28;20121;-59
2024/01/06 02:57:44;;;;;;;10.05;4.53;;;;;;;;;;4983375;28;20166;-60
2024/01/06 03:00:37;;;;;;;8.57;4.20;;;;;;;;;;4985317;28;20422;-59
2024/01/06 03:03:24;;;;;;;;;;;;;;;;;;4985739;28;20054;-47
2024/01/06 03:06:18;;;;;;;11.10;4.27;;;;;;;;;;4983584;28;19961;-45
2024/01/06 03:09:06;;;;;;;6.97;3.25;;;;;;;;;;4983318;28;20154;-51
2024/01/06 21:22:45;;;;;;;6.67;3.80;;;;;;;;;;4988710;28;20061;-51
2024/01/06 21:25:23;;;;;;;11.33;4.93;;;;;;;;;;4993736;28;20066;-57
2024/01/06 21:28:16;;;;;;;9.43;4.33;;;;;;;;;;4996916;28;20050;-60
2024/01/06 21:30:51;;;;;;;10.63;5.00;;;;;;;;;;4992842;28;20070;-59
2024/01/06 21:33:47;;;;;;;10.57;4.63;;;;;;;;;;4995009;28;20081;-61
2024/01/06 21:36:40;;;;;;;12.13;5.00;;;;;;;;;;4994647;28;20057;-58
2024/01/06 21:39:27;;;;;;;6.00;3.40;;;;;;;;;;4995339;28;20054;-61
2024/01/06 21:42:21;;;;;;;8.20;5.10;;;;;;;;;;4991004;28;20551;-65
2024/01/06 21:45:09;;;;;;;8.95;3.75;;;;;;;;;;4998825;28;20573;-60
2024/01/06 21:48:03;;;;;;;11.13;5.53;;;;;;;;;;4998324;28;20556;-61
2024/01/06 21:50:50;;;;;;;11.80;4.72;;;;;;;;;;4996775;28;20140;-60
2024/01/06 21:53:43;;;;;;;9.83;5.23;;;;;;;;;;4998703;28;20156;-60
2024/01/06 21:56:31;;;;;;;9.38;4.85;;;;;;;;;;4998017;28;20058;-60
2024/01/06 21:59:25;;;;;;;13.40;5.53;;;;;;;;;;4998971;28;20496;-59
2024/01/06 22:02:11;;;;;;;10.98;5.97;;;;;;;;;;5002060;28;20468;-66
2024/01/06 22:05:05;;;;;;;14.17;6.47;;;;;;;;;;4999395;28;20585;-66
2024/01/06 22:07:59;;;;;;;14.53;7.17;;;;;;;;;;4999114;28;20062;-66
2024/01/06 22:10:46;;;;;;;14.57;6.45;;;;;;;;;;5002250;28;20086;-66
2024/01/06 22:13:40;;;;;;;16.30;6.97;;;;;;;;;;4997558;28;20062;-65
2024/01/06 22:16:34;;;;;;;17.13;8.07;;;;;;;;;;5003748;28;20050;-65
2024/01/06 22:19:25;;;;;;;15.90;7.43;;;;;;;;;;5001381;28;20054;-65
2024/01/06 22:22:31;;;;;;;15.97;7.93;;;;;;;;;;4987326;28;20417;-65
2024/01/06 22:25:25;;;;;;;15.03;8.40;;;;;;;;;;4980294;28;20462;-65
2024/01/06 22:28:19;;;;;;;19.50;8.43;;;;;;;;;;4982796;28;20058;-60
2024/01/06 22:31:07;;;;;;;13.05;6.32;;;;;;;;;;4982886;28;20058;-55
2024/01/06 22:34:01;;;;;;;21.93;8.73;;;;;;;;;;4984086;28;20062;-56
2024/01/06 22:36:48;;;;;;;14.52;7.20;;;;;;;;;;4983863;28;20081;-53
2024/01/06 22:39:42;;;;;;;19.33;8.67;;;;;;;;;;4981045;28;20113;-54
2024/01/06 22:42:36;;;;;;;18.67;9.20;;;;;;;;;;4983949;28;20541;-52
2024/01/06 22:45:31;;;;;;;20.30;8.98;;;;;;;;;;4982194;28;20068;-53
2024/01/06 22:48:23;;;;;;;20.83;8.67;;;;;;;;;;4983197;28;20140;-50
2024/01/06 22:51:17;;;;;;;18.90;7.47;;;;;;;;;;4979895;28;20167;-52
2024/01/06 22:54:11;;;;;;;20.93;9.40;;;;;;;;;;4985269;28;20108;-50
2024/01/06 22:57:05;;;;;;;19.73;9.37;;;;;;;;;;4984506;28;20056;-59
2024/01/06 22:59:59;;;;;;;16.90;8.93;;;;;;;;;;4981440;28;20507;-47
2024/01/06 23:02:54;;;;;;;15.73;7.77;;;;;;;;;;4984103;28;20068;-48
2024/01/06 23:05:47;;;;;;;17.70;9.00;;;;;;;;;;4980743;28;20059;-47
2024/01/06 23:08:35;;;;;;;20.83;9.57;;;;;;;;;;4983456;28;20051;-45
2024/01/06 23:11:28;;;;;;;21.83;8.73;;;;;;;;;;4983637;28;20073;-44
2024/01/06 23:14:16;;;;;;;16.83;6.35;;;;;;;;;;4985216;28;20190;-65
2024/01/06 23:17:09;;;;;;;16.93;8.20;;;;;;;;;;4983821;28;20668;-66
2024/01/06 23:19:56;;;;;;;16.35;7.63;;;;;;;;;;4978786;28;20053;-65
2024/01/06 23:23:03;;;;;;;19.50;8.53;;;;;;;;;;4985665;28;20060;-65
2024/01/06 23:25:58;;;;;;;10.43;4.27;;;;;;;;;;4985044;28;20120;-65
2024/01/06 23:28:51;;;;;;;19.20;7.77;;;;;;;;;;4981999;28;20043;-51
2024/01/06 23:31:38;;;;;;;18.33;7.68;;;;;;;;;;4985076;28;20050;-51
2024/01/06 23:34:32;;;;;;;16.00;7.17;;;;;;;;;;4985751;28;20055;-51
2024/01/06 23:37:19;;;;;;;17.17;7.88;;;;;;;;;;4986259;28;22021;-50
2024/01/06 23:40:13;;;;;;;15.57;6.70;;;;;;;;;;4984700;28;20042;-51
2024/01/06 23:43:01;;;;;;;10.35;4.95;;;;;;;;;;4985528;28;20299;-51
2024/01/06 23:45:54;;;;;;;16.60;7.00;;;;;;;;;;4982233;28;20104;-50
2024/01/06 23:48:48;;;;;;;10.63;4.50;;;;;;;;;;4985496;28;20050;-51
2024/01/06 23:51:36;;;;;;;16.80;6.85;;;;;;;;;;4986645;28;20145;-51
2024/01/06 23:54:29;;;;;;;18.13;6.50;;;;;;;;;;4982141;28;20077;-59
2024/01/06 23:57:17;;;;;;;13.73;6.90;;;;;;;;;;4982234;28;20081;-60
